createdAt,value
2018-03-27T00:02:05.746Z,15.50
2018-03-27T00:04:32.892Z,15.50
2018-03-27T00:07:00.045Z,15.50
2018-03-27T00:09:27.949Z,15.50
2018-03-27T00:11:55.886Z,15.50
2018-03-27T00:14:23.073Z,15.50
2018-03-27T00:16:50.977Z,15.50
2018-03-27T00:19:18.118Z,15.40
2018-03-27T00:21:45.293Z,15.40
2018-03-27T00:24:12.469Z,15.50
2018-03-27T00:26:45.557Z,15.50
2018-03-27T00:29:18.522Z,15.50
2018-03-27T00:31:51.469Z,15.40
2018-03-27T00:34:25.212Z,15.40
2018-03-27T00:36:58.109Z,15.40
2018-03-27T00:39:31.089Z,15.40
2018-03-27T00:42:13.106Z,15.40
2018-03-27T00:44:40.284Z,15.40
2018-03-27T00:47:08.202Z,15.40
2018-03-27T00:49:35.343Z,15.40
2018-03-27T00:52:02.485Z,15.40
2018-03-27T00:54:29.679Z,15.40
2018-03-27T00:56:56.817Z,15.50
2018-03-27T00:59:23.960Z,15.60
2018-03-27T01:01:51.129Z,15.60
2018-03-27T01:04:18.269Z,15.70
2018-03-27T01:06:45.433Z,15.70
2018-03-27T01:09:12.618Z,15.70
2018-03-27T01:11:40.563Z,15.60
2018-03-27T01:14:07.709Z,15.60
2018-03-27T01:16:35.656Z,15.60
2018-03-27T01:19:02.797Z,15.60
2018-03-27T01:21:29.945Z,15.60
2018-03-27T01:23:57.080Z,15.60
2018-03-27T01:26:24.231Z,15.60
2018-03-27T01:28:51.365Z,15.60
2018-03-27T01:31:19.266Z,15.50
2018-03-27T01:33:46.405Z,15.50
2018-03-27T01:36:13.552Z,15.50
2018-03-27T01:38:40.685Z,15.50
2018-03-27T01:41:08.609Z,15.50
2018-03-27T01:43:35.747Z,15.50
2018-03-27T01:46:02.886Z,15.50
2018-03-27T01:48:30.058Z,15.50
2018-03-27T01:50:57.193Z,15.50
2018-03-27T01:53:24.332Z,15.50
2018-03-27T01:55:51.466Z,15.50
2018-03-27T01:58:19.377Z,15.50
2018-03-27T02:00:46.520Z,15.50
2018-03-27T02:03:13.710Z,15.50
2018-03-27T02:05:40.855Z,15.50
2018-03-27T02:08:07.998Z,15.50
2018-03-27T02:10:34.726Z,15.50
2018-03-27T02:13:07.538Z,15.50
2018-03-27T02:15:40.432Z,15.50
2018-03-27T02:18:13.353Z,15.50
2018-03-27T02:20:46.146Z,15.40
2018-03-27T02:23:24.966Z,15.50
2018-03-27T02:25:52.113Z,15.40
2018-03-27T02:28:19.252Z,15.50
2018-03-27T02:30:46.403Z,15.40
2018-03-27T02:33:14.311Z,15.40
2018-03-27T02:35:41.458Z,15.40
2018-03-27T02:38:08.610Z,15.40
2018-03-27T02:40:35.752Z,15.40
2018-03-27T02:43:02.894Z,15.40
2018-03-27T02:45:30.875Z,15.40
2018-03-27T02:47:58.031Z,15.40
2018-03-27T02:50:25.174Z,15.40
2018-03-27T02:52:52.314Z,15.40
2018-03-27T02:55:19.453Z,15.40
2018-03-27T02:57:46.585Z,15.40
2018-03-27T03:00:14.492Z,15.40
2018-03-27T03:02:41.634Z,15.40
2018-03-27T03:05:08.814Z,15.40
2018-03-27T03:07:36.714Z,15.40
2018-03-27T03:10:03.865Z,15.40
2018-03-27T03:12:31.062Z,15.40
2018-03-27T03:14:58.212Z,15.50
2018-03-27T03:17:25.353Z,15.60
2018-03-27T03:19:52.492Z,15.60
2018-03-27T03:22:20.436Z,15.60
2018-03-27T03:24:47.585Z,15.60
2018-03-27T03:27:14.781Z,15.60
2018-03-27T03:29:41.925Z,15.60
2018-03-27T03:32:09.069Z,15.60
2018-03-27T03:34:36.969Z,15.60
2018-03-27T03:37:04.104Z,15.60
2018-03-27T03:39:31.246Z,15.60
2018-03-27T03:41:58.385Z,15.60
2018-03-27T03:44:26.338Z,15.50
2018-03-27T03:46:54.246Z,15.50
2018-03-27T03:49:21.421Z,15.50
2018-03-27T03:51:48.563Z,15.50
2018-03-27T03:54:15.737Z,15.50
2018-03-27T03:56:42.882Z,15.50
2018-03-27T03:59:10.058Z,15.50
2018-03-27T04:01:37.275Z,15.50
2018-03-27T04:04:04.462Z,15.40
2018-03-27T04:06:31.644Z,15.50
2018-03-27T04:08:58.783Z,15.50
2018-03-27T04:11:26.714Z,15.40
2018-03-27T04:13:53.865Z,15.40
2018-03-27T04:16:21.002Z,15.40
2018-03-27T04:18:48.217Z,15.40
2018-03-27T04:21:15.407Z,15.40
2018-03-27T04:23:42.550Z,15.40
2018-03-27T04:26:09.698Z,15.40
2018-03-27T04:28:36.905Z,15.40
2018-03-27T04:31:04.822Z,15.40
2018-03-27T04:33:31.962Z,15.40
2018-03-27T04:35:59.096Z,15.40
2018-03-27T04:38:26.276Z,15.40
2018-03-27T04:40:53.424Z,15.40
2018-03-27T04:43:20.598Z,15.40
2018-03-27T04:45:47.781Z,15.40
2018-03-27T04:48:15.693Z,15.40
2018-03-27T04:50:42.830Z,15.40
2018-03-27T04:53:09.965Z,15.40
2018-03-27T04:55:37.909Z,15.40
2018-03-27T04:58:05.044Z,15.40
2018-03-27T05:00:32.240Z,15.40
2018-03-27T05:02:59.381Z,15.40
2018-03-27T05:05:27.295Z,15.30
2018-03-27T05:07:54.493Z,15.30
2018-03-27T05:10:22.403Z,15.30
2018-03-27T05:12:49.542Z,15.30
2018-03-27T05:15:16.685Z,15.30
2018-03-27T05:17:43.826Z,15.30
2018-03-27T05:20:11.733Z,15.40
2018-03-27T05:22:38.880Z,15.40
2018-03-27T05:25:06.014Z,15.50
2018-03-27T05:27:33.158Z,15.60
2018-03-27T05:30:00.294Z,15.60
2018-03-27T05:32:28.203Z,15.70
2018-03-27T05:34:55.345Z,15.70
2018-03-27T05:37:23.397Z,15.70
2018-03-27T05:39:50.539Z,15.70
2018-03-27T05:42:18.452Z,15.70
2018-03-27T05:44:46.527Z,15.70
2018-03-27T05:47:13.667Z,15.70
2018-03-27T05:49:40.815Z,15.60
2018-03-27T05:52:07.963Z,15.60
2018-03-27T05:54:35.103Z,15.60
2018-03-27T05:57:02.286Z,15.60
2018-03-27T05:59:29.437Z,15.60
2018-03-27T06:01:56.631Z,15.60
2018-03-27T06:04:24.541Z,15.60
2018-03-27T06:06:51.681Z,15.50
2018-03-27T06:09:18.860Z,15.60
2018-03-27T06:11:45.998Z,15.60
2018-03-27T06:14:13.142Z,15.60
2018-03-27T06:16:40.331Z,15.60
2018-03-27T06:19:07.474Z,15.60
2018-03-27T06:21:34.655Z,15.60
2018-03-27T06:24:02.567Z,15.60
2018-03-27T06:26:29.719Z,15.60
2018-03-27T06:28:56.857Z,15.60
2018-03-27T06:31:24.107Z,15.60
2018-03-27T06:33:51.265Z,15.60
2018-03-27T06:36:18.418Z,15.60
2018-03-27T06:38:45.570Z,15.60
2018-03-27T06:41:12.710Z,15.60
2018-03-27T06:43:40.764Z,15.60
2018-03-27T06:46:08.675Z,15.70
2018-03-27T06:48:35.830Z,15.70
2018-03-27T06:51:02.972Z,15.80
2018-03-27T06:53:30.149Z,15.80
2018-03-27T06:55:58.141Z,15.80
2018-03-27T06:58:25.282Z,15.90
2018-03-27T07:00:52.427Z,15.90
2018-03-27T07:03:19.591Z,15.90
2018-03-27T07:05:46.760Z,15.90
2018-03-27T07:08:14.660Z,15.80
2018-03-27T07:10:41.859Z,15.80
2018-03-27T07:13:19.597Z,15.80
2018-03-27T07:15:58.151Z,15.80
2018-03-27T07:18:26.103Z,15.70
2018-03-27T07:20:53.267Z,15.70
2018-03-27T07:23:20.407Z,15.70
2018-03-27T07:25:47.597Z,15.70
2018-03-27T07:28:14.742Z,15.70
2018-03-27T07:30:41.889Z,15.70
2018-03-27T07:33:09.031Z,15.70
2018-03-27T07:35:36.178Z,15.70
2018-03-27T07:38:03.322Z,15.70
2018-03-27T07:40:30.527Z,15.60
2018-03-27T07:42:58.442Z,15.60
2018-03-27T07:45:25.577Z,15.60
2018-03-27T07:47:52.714Z,15.60
2018-03-27T07:50:19.849Z,15.60
2018-03-27T07:52:47.763Z,15.60
2018-03-27T07:55:14.901Z,15.60
2018-03-27T07:57:42.041Z,15.60
2018-03-27T08:00:09.184Z,15.60
2018-03-27T08:02:36.317Z,15.60
2018-03-27T08:05:04.230Z,15.70
2018-03-27T08:07:31.369Z,15.70
2018-03-27T08:09:58.521Z,15.80
2018-03-27T08:12:25.657Z,15.80
2018-03-27T08:14:52.846Z,15.90
2018-03-27T08:17:19.985Z,15.80
2018-03-27T08:19:47.130Z,15.80
2018-03-27T08:22:14.279Z,15.80
2018-03-27T08:24:41.412Z,15.80
2018-03-27T08:27:08.547Z,15.80
2018-03-27T08:29:36.512Z,15.70
2018-03-27T08:32:03.713Z,15.70
2018-03-27T08:34:30.858Z,15.70
2018-03-27T08:36:58.054Z,15.70
2018-03-27T08:39:25.225Z,15.70
2018-03-27T08:41:53.141Z,15.70
2018-03-27T08:44:20.332Z,15.60
2018-03-27T08:46:48.245Z,15.60
2018-03-27T08:49:15.421Z,15.60
2018-03-27T08:51:43.416Z,15.60
2018-03-27T08:54:10.585Z,15.60
2018-03-27T08:56:38.514Z,15.60
2018-03-27T08:59:05.701Z,15.60
2018-03-27T09:01:33.630Z,15.60
2018-03-27T09:04:00.776Z,15.60
2018-03-27T09:06:27.929Z,15.60
2018-03-27T09:08:55.087Z,15.60
2018-03-27T09:11:22.341Z,15.60
2018-03-27T09:14:00.624Z,15.60
2018-03-27T09:16:27.762Z,15.60
2018-03-27T09:18:54.956Z,15.60
2018-03-27T09:21:22.146Z,15.60
2018-03-27T09:23:50.074Z,15.50
2018-03-27T09:26:17.272Z,15.50
2018-03-27T09:28:45.188Z,15.50
2018-03-27T09:33:33.054Z,15.50
2018-03-27T09:36:00.952Z,15.50
2018-03-27T09:38:28.134Z,15.50
2018-03-27T09:40:55.275Z,15.50
2018-03-27T09:43:23.193Z,15.50
2018-03-27T09:45:50.333Z,15.50
2018-03-27T09:48:17.468Z,15.50
2018-03-27T09:50:44.601Z,15.50
2018-03-27T09:53:11.745Z,15.50
2018-03-27T09:55:39.759Z,15.50
2018-03-27T09:58:06.909Z,15.50
2018-03-27T10:00:39.803Z,15.40
2018-03-27T10:03:06.951Z,15.40
2018-03-27T10:05:34.086Z,15.40
2018-03-27T10:08:01.226Z,15.40
2018-03-27T10:10:28.360Z,15.40
2018-03-27T10:12:56.259Z,15.50
2018-03-27T10:15:23.434Z,15.50
2018-03-27T10:17:50.566Z,15.60
2018-03-27T10:20:18.472Z,15.70
2018-03-27T10:22:46.400Z,15.70
2018-03-27T10:25:13.541Z,15.70
2018-03-27T10:27:40.710Z,15.70
2018-03-27T10:30:07.847Z,15.70
2018-03-27T10:32:34.979Z,15.70
2018-03-27T10:35:02.157Z,15.60
2018-03-27T10:37:29.311Z,15.60
2018-03-27T10:39:56.454Z,15.60
2018-03-27T10:42:23.588Z,15.60
2018-03-27T10:44:50.729Z,15.60
2018-03-27T10:47:17.870Z,15.50
2018-03-27T10:49:45.778Z,15.50
2018-03-27T10:52:12.922Z,15.50
2018-03-27T10:54:40.070Z,15.50
2018-03-27T10:57:07.205Z,15.50
2018-03-27T10:59:34.340Z,15.50
2018-03-27T11:02:02.270Z,15.50
2018-03-27T11:04:29.406Z,15.50
2018-03-27T11:06:56.553Z,15.40
2018-03-27T11:09:23.697Z,15.40
2018-03-27T11:11:50.837Z,15.40
2018-03-27T11:14:17.979Z,15.40
2018-03-27T11:16:45.118Z,15.40
2018-03-27T11:19:13.021Z,15.40
2018-03-27T11:21:40.157Z,15.40
2018-03-27T11:24:07.297Z,15.40
2018-03-27T11:26:34.433Z,15.50
2018-03-27T11:29:02.345Z,15.70
2018-03-27T11:31:29.480Z,15.70
2018-03-27T11:33:56.622Z,15.80
2018-03-27T11:36:23.771Z,15.80
2018-03-27T11:38:50.909Z,15.70
2018-03-27T11:41:18.811Z,15.60
2018-03-27T11:43:45.941Z,15.60
2018-03-27T11:46:13.126Z,15.60
2018-03-27T11:48:40.269Z,15.50
2018-03-27T11:51:07.537Z,15.60
2018-03-27T11:53:34.725Z,15.50
2018-03-27T11:56:02.641Z,15.50
2018-03-27T11:58:29.790Z,15.50
2018-03-27T12:00:56.930Z,15.50
2018-03-27T12:03:24.079Z,15.50
2018-03-27T12:05:51.217Z,15.50
2018-03-27T12:08:18.353Z,15.40
2018-03-27T12:10:46.894Z,15.40
2018-03-27T12:15:59.302Z,15.40
2018-03-27T12:18:26.475Z,15.40
2018-03-27T12:20:53.678Z,15.40
2018-03-27T12:23:21.614Z,15.40
2018-03-27T12:25:48.783Z,15.40
2018-03-27T12:28:16.719Z,15.40
2018-03-27T12:30:43.887Z,15.40
2018-03-27T12:33:11.093Z,15.40
2018-03-27T12:35:38.298Z,15.40
2018-03-27T12:38:05.478Z,15.40
2018-03-27T12:40:32.682Z,15.40
2018-03-27T12:42:59.858Z,15.40
2018-03-27T12:45:27.836Z,15.40
2018-03-27T12:47:55.771Z,15.40
2018-03-27T12:50:22.983Z,15.40
2018-03-27T12:52:50.151Z,15.30
2018-03-27T12:55:17.323Z,15.40
2018-03-27T12:57:44.529Z,15.40
2018-03-27T13:00:11.694Z,15.40
2018-03-27T13:02:38.939Z,15.40
2018-03-27T13:05:06.115Z,15.40
2018-03-27T13:07:33.291Z,15.40
2018-03-27T13:10:00.475Z,15.40
2018-03-27T13:12:28.427Z,15.40
2018-03-27T13:14:55.607Z,15.40
2018-03-27T13:17:23.590Z,15.40
2018-03-27T13:19:50.764Z,15.40
2018-03-27T13:22:17.945Z,15.40
2018-03-27T13:24:45.123Z,15.40
2018-03-27T13:27:13.141Z,15.40
2018-03-27T13:29:40.318Z,15.40
2018-03-27T13:32:07.540Z,15.50
2018-03-27T13:34:34.763Z,15.50
2018-03-27T13:37:01.946Z,15.60
2018-03-27T13:39:29.168Z,15.70
2018-03-27T13:41:57.279Z,15.70
2018-03-27T13:44:24.448Z,15.70
2018-03-27T13:46:51.684Z,15.70
2018-03-27T13:49:18.850Z,15.70
2018-03-27T13:51:46.071Z,15.70
2018-03-27T13:54:13.243Z,15.70
2018-03-27T13:56:41.292Z,15.60
2018-03-27T13:59:08.454Z,15.60
2018-03-27T14:01:35.669Z,15.60
2018-03-27T14:04:03.680Z,15.50
2018-03-27T14:06:30.900Z,15.60
2018-03-27T14:08:58.747Z,15.50
2018-03-27T14:11:26.736Z,15.50
2018-03-27T14:13:53.910Z,15.50
2018-03-27T14:16:21.136Z,15.50
2018-03-27T14:18:48.322Z,15.50
2018-03-27T14:21:15.494Z,15.40
2018-03-27T14:23:42.692Z,15.40
2018-03-27T14:26:09.867Z,15.40
2018-03-27T14:28:37.037Z,15.40
2018-03-27T14:31:04.262Z,15.40
2018-03-27T14:33:31.446Z,15.40
2018-03-27T14:35:58.610Z,15.40
2018-03-27T14:38:25.779Z,15.30
2018-03-27T14:40:52.967Z,15.30
2018-03-27T14:43:20.135Z,15.30
2018-03-27T14:45:47.345Z,15.40
2018-03-27T14:48:15.282Z,15.40
2018-03-27T14:50:42.449Z,15.40
2018-03-27T14:53:09.631Z,15.40
2018-03-27T14:55:36.855Z,15.40
2018-03-27T14:58:04.027Z,15.40
2018-03-27T15:00:31.962Z,15.40
2018-03-27T15:02:59.138Z,15.40
2018-03-27T15:05:27.093Z,15.40
2018-03-27T15:07:54.258Z,15.40
2018-03-27T15:10:22.204Z,15.30
2018-03-27T15:12:49.383Z,15.30
2018-03-27T15:15:17.323Z,15.20
2018-03-27T15:17:44.518Z,15.20
2018-03-27T15:20:12.459Z,15.20
2018-03-27T15:22:39.629Z,15.20
2018-03-27T15:25:07.566Z,15.30
2018-03-27T15:27:34.743Z,15.30
2018-03-27T15:30:02.689Z,15.50
2018-03-27T15:32:30.637Z,15.50
2018-03-27T15:34:57.806Z,15.50
2018-03-27T15:37:25.002Z,15.50
2018-03-27T15:39:52.942Z,15.50
2018-03-27T15:42:20.158Z,15.50
2018-03-27T15:44:47.327Z,15.50
2018-03-27T15:47:14.571Z,15.50
2018-03-27T15:49:41.748Z,15.40
2018-03-27T15:52:08.971Z,15.40
2018-03-27T15:54:36.142Z,15.40
2018-03-27T15:57:03.359Z,15.40
2018-03-27T15:59:30.534Z,15.30
2018-03-27T16:01:58.519Z,15.30
2018-03-27T16:04:25.755Z,15.20
2018-03-27T16:06:52.977Z,15.30
2018-03-27T16:09:20.144Z,15.30
2018-03-27T16:11:47.353Z,15.30
2018-03-27T16:14:15.286Z,15.30
2018-03-27T16:16:42.462Z,15.30
2018-03-27T16:19:09.630Z,15.30
2018-03-27T16:21:37.566Z,15.40
2018-03-27T16:24:04.734Z,15.40
2018-03-27T16:26:31.897Z,15.40
2018-03-27T16:28:59.065Z,15.40
2018-03-27T16:31:26.998Z,15.40
2018-03-27T16:33:54.334Z,15.40
2018-03-27T16:36:21.506Z,15.40
2018-03-27T16:38:48.675Z,15.40
2018-03-27T16:41:16.658Z,15.40
2018-03-27T16:43:44.636Z,15.40
2018-03-27T16:46:12.567Z,15.30
2018-03-27T16:48:39.733Z,15.30
2018-03-27T16:51:07.663Z,15.30
2018-03-27T16:53:34.829Z,15.30
2018-03-27T16:56:02.051Z,15.40
2018-03-27T16:58:29.234Z,15.50
2018-03-27T17:00:59.179Z,15.60
2018-03-27T17:03:27.117Z,15.60
2018-03-27T17:05:54.292Z,15.60
2018-03-27T17:08:21.489Z,15.60
2018-03-27T17:10:48.690Z,15.60
2018-03-27T17:13:15.854Z,15.60
2018-03-27T17:15:43.023Z,15.60
2018-03-27T17:18:10.194Z,15.60
2018-03-27T17:20:37.393Z,15.60
2018-03-27T17:23:04.621Z,15.60
2018-03-27T17:25:31.786Z,15.60
2018-03-27T17:27:58.954Z,15.60
2018-03-27T17:30:26.126Z,15.60
2018-03-27T17:32:54.106Z,15.70
2018-03-27T17:35:22.081Z,15.70
2018-03-27T17:37:49.317Z,15.70
2018-03-27T17:40:17.334Z,15.70
2018-03-27T17:42:44.498Z,15.70
2018-03-27T17:45:13.276Z,15.60
2018-03-27T17:47:40.768Z,15.60
2018-03-27T17:50:08.118Z,15.60
2018-03-27T17:52:36.232Z,15.70
2018-03-27T17:55:03.429Z,15.70
2018-03-27T17:57:30.602Z,15.60
2018-03-27T17:59:57.908Z,15.60
2018-03-27T18:02:25.235Z,15.60
2018-03-27T18:04:52.512Z,15.60
2018-03-27T18:07:20.540Z,15.60
2018-03-27T18:09:48.842Z,15.60
2018-03-27T18:12:18.407Z,15.60
2018-03-27T18:14:45.861Z,15.60
2018-03-27T18:17:13.337Z,15.60
2018-03-27T18:19:41.117Z,15.60
2018-03-27T18:22:08.769Z,15.60
2018-03-27T18:24:36.407Z,15.60
2018-03-27T18:27:04.169Z,15.60
2018-03-27T18:29:31.834Z,15.60
2018-03-27T18:32:02.134Z,15.60
2018-03-27T18:34:31.793Z,15.60
2018-03-27T18:36:59.446Z,15.60
2018-03-27T18:39:27.360Z,15.60
2018-03-27T18:42:02.962Z,15.60
2018-03-27T18:44:30.515Z,15.60
2018-03-27T18:46:58.175Z,15.60
2018-03-27T18:49:31.222Z,15.60
2018-03-27T18:51:58.842Z,15.60
2018-03-27T18:54:26.547Z,15.60
2018-03-27T18:56:55.734Z,15.70
2018-03-27T18:59:24.146Z,15.80
2018-03-27T19:01:51.686Z,15.80
2018-03-27T19:04:20.332Z,15.80
2018-03-27T19:06:47.930Z,15.80
2018-03-27T19:09:16.825Z,15.80
2018-03-27T19:11:44.574Z,15.80
2018-03-27T19:14:12.922Z,15.70
2018-03-27T19:16:40.533Z,15.70
2018-03-27T19:19:09.086Z,15.70
2018-03-27T19:21:36.659Z,15.70
2018-03-27T19:24:05.859Z,15.60
2018-03-27T19:26:34.235Z,15.60
2018-03-27T19:29:02.570Z,15.60
2018-03-27T19:31:31.131Z,15.60
2018-03-27T19:33:58.931Z,15.60
2018-03-27T19:36:26.565Z,15.60
2018-03-27T19:38:54.128Z,15.60
2018-03-27T19:41:21.691Z,15.60
2018-03-27T19:43:49.268Z,15.60
2018-03-27T19:46:20.944Z,15.50
2018-03-27T19:48:50.614Z,15.50
2018-03-27T19:51:18.943Z,15.60
2018-03-27T19:53:46.509Z,15.60
2018-03-27T19:56:14.209Z,15.50
2018-03-27T19:58:42.575Z,15.50
2018-03-27T20:01:11.795Z,15.50
2018-03-27T20:03:39.296Z,15.50
2018-03-27T20:06:06.830Z,15.50
2018-03-27T20:08:35.735Z,15.50
2018-03-27T20:11:04.082Z,15.40
2018-03-27T20:13:31.638Z,15.40
2018-03-27T20:15:59.304Z,15.40
2018-03-27T20:18:26.927Z,15.40
2018-03-27T20:20:54.582Z,15.40
2018-03-27T20:23:22.192Z,15.40
2018-03-27T20:25:50.021Z,15.40
2018-03-27T20:28:17.587Z,15.40
2018-03-27T20:30:56.338Z,15.40
2018-03-27T20:33:24.178Z,15.30
2018-03-27T20:35:52.077Z,15.40
2018-03-27T20:38:19.999Z,15.30
2018-03-27T20:40:47.770Z,15.30
2018-03-27T20:43:15.500Z,15.30
2018-03-27T20:45:43.954Z,15.30
2018-03-27T20:48:11.431Z,15.40
2018-03-27T20:50:39.397Z,15.50
2018-03-27T20:53:07.291Z,15.60
2018-03-27T20:55:34.798Z,15.60
2018-03-27T21:01:00.649Z,15.60
2018-03-27T21:03:29.262Z,15.50
2018-03-27T21:05:56.578Z,15.50
2018-03-27T21:08:24.695Z,15.50
2018-03-27T21:10:51.882Z,15.50
2018-03-27T21:13:19.112Z,15.50
2018-03-27T21:15:46.322Z,15.50
2018-03-27T21:18:13.496Z,15.50
2018-03-27T21:20:40.678Z,15.50
2018-03-27T21:23:07.853Z,15.40
2018-03-27T21:25:35.802Z,15.40
2018-03-27T21:28:04.010Z,15.40
2018-03-27T21:30:31.946Z,15.40
2018-03-27T21:32:59.123Z,15.40
2018-03-27T21:35:27.058Z,15.40
2018-03-27T21:37:54.229Z,15.30
2018-03-27T21:40:21.403Z,15.30
2018-03-27T21:42:49.340Z,15.30
2018-03-27T21:45:16.505Z,15.30
2018-03-27T21:47:43.673Z,15.30
2018-03-27T21:50:11.686Z,15.30
2018-03-27T21:52:38.853Z,15.30
2018-03-27T21:55:06.038Z,15.20
2018-03-27T21:57:34.010Z,15.30
2018-03-27T22:00:02.006Z,15.30
2018-03-27T22:02:29.175Z,15.30
2018-03-27T22:04:56.341Z,15.30
2018-03-27T22:07:24.322Z,15.20
2018-03-27T22:09:51.490Z,15.20
2018-03-27T22:12:18.706Z,15.20
2018-03-27T22:14:45.882Z,15.20
2018-03-27T22:17:13.065Z,15.20
2018-03-27T22:19:41.009Z,15.30
2018-03-27T22:22:08.178Z,15.20
2018-03-27T22:24:36.119Z,15.20
2018-03-27T22:27:03.303Z,15.20
2018-03-27T22:29:31.284Z,15.20
2018-03-27T22:31:59.229Z,15.10
2018-03-27T22:34:26.393Z,15.10
2018-03-27T22:36:54.340Z,15.00
2018-03-27T22:39:22.311Z,15.00
2018-03-27T22:41:49.489Z,15.00
2018-03-27T22:44:17.463Z,15.10
2018-03-27T22:46:45.394Z,15.20
2018-03-27T22:49:12.563Z,15.10
2018-03-27T22:51:39.778Z,15.10
2018-03-27T22:54:06.942Z,15.00
2018-03-27T22:56:34.138Z,15.00
2018-03-27T22:59:02.072Z,15.20
2018-03-27T23:01:29.307Z,15.20
2018-03-27T23:03:56.482Z,15.30
2018-03-27T23:06:23.646Z,15.40
2018-03-27T23:08:50.810Z,15.40
2018-03-27T23:11:18.746Z,15.30
2018-03-27T23:13:45.921Z,15.30
2018-03-27T23:16:13.930Z,15.30
2018-03-27T23:18:41.100Z,15.30
2018-03-27T23:21:08.276Z,15.30
2018-03-27T23:23:35.494Z,15.30
2018-03-27T23:26:02.662Z,15.30
2018-03-27T23:28:29.835Z,15.30
2018-03-27T23:30:57.051Z,15.30
2018-03-27T23:33:24.221Z,15.20
2018-03-27T23:35:52.215Z,15.20
2018-03-27T23:38:19.388Z,15.20
2018-03-27T23:40:47.354Z,15.20
2018-03-27T23:43:15.299Z,15.20
2018-03-27T23:45:42.480Z,15.20
2018-03-27T23:48:10.418Z,15.20
2018-03-27T23:50:37.601Z,15.20
2018-03-27T23:53:05.542Z,15.20
2018-03-27T23:55:32.718Z,15.20
2018-03-27T23:58:00.663Z,15.20
